Ree Heights, SD

3:55 PM CST on January 29, 2015 (GMT -0600)
NonFedAWOS MILLERMUNC SD US SUPERAWOS | Change Station
CLOSE
Current Station
Personal Weather Station
Location: Miller, SD
Elevation: 1568 ft
Nearby Weather Stations

Elev 1568 ft 44.53 °N, 98.96 °W | Updated 20 minutes ago

Partly Cloudy
Partly Cloudy
34 °F
Feels Like 25 °F
N
14
Wind Variable Wind from NNW
Gusts 0.0 mph

Today
High -- | Low -- °F
--% Chance of Precip.
Yesterday
High -- | Low -- °F
Precip. -- in
7:59 AM 5:41 PM
Waxing Gibbous, 77% visible
Pressure 30.53 in
Visibility 10.0 miles
Clouds Overcast 2300 ft
Windchill 25 °F
Dew Point 18 °F
Humidity 51%
Rainfall -999.00 in
Snow Depth Not available.
UV 1 out of 12
Pollen .10 out of 12
Air Quality Not available.
Flu Activity Not available.
METAR KHON 292055Z AUTO 35015KT 10SM OVC023 M02/M07 A3048 RMK AO2 SLP338 T10221067 53003

More Conditions Fewer Conditions

Pressure 30.53 in
Visibility 10.0 miles
Clouds Overcast 2300 ft
Windchill 25 °F
Dew Point 18 °F
Humidity 51%
Rainfall -999.00 in
Snow Depth Not available.
UV 1 out of 12
Pollen .10 out of 12
Air Quality Not available.
Flu Activity Not available.
METAR KHON 292055Z AUTO 35015KT 10SM OVC023 M02/M07 A3048 RMK AO2 SLP338 T10221067 53003

More Conditions Fewer Conditions

10-Day Weather Forecast

Almanac

Astronomy

Jan. 29, 2015 Rise Set
Actual Time
Civil Twilight
Nautical Twilight
Astronomical Twilight
Moon
Length of Visible Light
Length of Day
Tomorrow will be .
, % of the Moon is Illuminated

Today's Extremes

State Highs State Lows

Community

WunderPhotos

Upload Photos

1,791,615 photos uploaded!

WunderBlogs® & News

Nearby

Air Quality

  Air Quality AQ Index Pollutant
Not available.

Snow Depth

Station Depth Elevation

Earthquake Activity

City Distance Mag. Time & Date
Minimum magnitude displayed is 2.5.

Coastal Water Temperatures

Place Temperature

Nearby Weather Stations